createdAt,value
2017-03-12T00:00:10.066Z,21.64
2017-03-12T00:00:50.558Z,21.52
2017-03-12T00:01:31.478Z,21.56
2017-03-12T00:02:11.985Z,21.49
2017-03-12T00:02:52.473Z,21.56
2017-03-12T00:03:32.951Z,21.56
2017-03-12T00:04:13.453Z,21.45
2017-03-12T00:04:53.961Z,21.58
2017-03-12T00:05:34.464Z,21.58
2017-03-12T00:06:14.959Z,21.53
2017-03-12T00:06:55.467Z,21.52
2017-03-12T00:07:35.956Z,21.48
2017-03-12T00:08:16.459Z,21.51
2017-03-12T00:08:56.965Z,21.49
2017-03-12T00:09:37.473Z,21.55
2017-03-12T00:10:17.948Z,21.52
2017-03-12T00:10:58.430Z,21.53
2017-03-12T00:11:38.917Z,21.51
2017-03-12T00:12:19.415Z,21.48
2017-03-12T00:12:59.904Z,21.51
2017-03-12T00:13:40.391Z,21.51
2017-03-12T00:14:20.879Z,21.53
2017-03-12T00:15:01.368Z,21.51
2017-03-12T00:15:41.849Z,21.52
2017-03-12T00:16:22.355Z,21.49
2017-03-12T00:17:02.878Z,21.49
2017-03-12T00:17:43.358Z,21.49
2017-03-12T00:18:23.841Z,21.46
2017-03-12T00:19:04.347Z,21.48
2017-03-12T00:19:44.835Z,21.48
2017-03-12T00:20:25.326Z,21.55
2017-03-12T00:21:05.854Z,21.52
2017-03-12T00:21:46.330Z,21.53
2017-03-12T00:22:26.842Z,21.55
2017-03-12T00:23:07.321Z,21.52
2017-03-12T00:23:47.799Z,21.56
2017-03-12T00:24:28.289Z,21.51
2017-03-12T00:25:08.781Z,21.46
2017-03-12T00:25:49.265Z,21.53
2017-03-12T00:26:29.763Z,21.55
2017-03-12T00:27:10.257Z,21.53
2017-03-12T00:27:50.758Z,21.51
2017-03-12T00:28:31.241Z,21.52
2017-03-12T00:29:11.758Z,21.48
2017-03-12T00:29:52.237Z,21.59
2017-03-12T00:30:32.725Z,21.53
2017-03-12T00:31:13.208Z,21.51
2017-03-12T00:31:53.699Z,21.49
2017-03-12T00:32:34.204Z,21.55
2017-03-12T00:33:14.701Z,21.51
2017-03-12T00:33:55.206Z,21.46
2017-03-12T00:34:35.690Z,21.51
2017-03-12T00:35:16.185Z,21.51
2017-03-12T00:35:56.683Z,21.49
2017-03-12T00:36:37.160Z,21.52
2017-03-12T00:37:17.657Z,21.52
2017-03-12T00:37:58.149Z,21.48
2017-03-12T00:38:38.647Z,21.46
2017-03-12T00:39:19.816Z,21.49
2017-03-12T00:40:00.292Z,21.49
2017-03-12T00:40:40.795Z,21.56
2017-03-12T00:41:21.289Z,21.51
2017-03-12T00:42:01.771Z,21.51
2017-03-12T00:42:42.262Z,21.49
2017-03-12T00:43:22.749Z,21.48
2017-03-12T00:44:03.235Z,21.48
2017-03-12T00:44:43.718Z,21.51
2017-03-12T00:45:24.232Z,21.51
2017-03-12T00:46:04.726Z,21.49
2017-03-12T00:46:45.219Z,21.46
2017-03-12T00:47:25.706Z,21.46
2017-03-12T00:48:06.179Z,21.43
2017-03-12T00:48:46.699Z,21.45
2017-03-12T00:49:27.222Z,21.41
2017-03-12T00:50:07.672Z,21.43
2017-03-12T00:50:48.182Z,21.49
2017-03-12T00:51:28.666Z,21.51
2017-03-12T00:52:09.153Z,21.46
2017-03-12T00:52:50.315Z,21.53
2017-03-12T00:53:30.777Z,21.43
2017-03-12T00:54:11.278Z,21.52
2017-03-12T00:54:51.763Z,21.43
2017-03-12T00:55:32.243Z,21.53
2017-03-12T00:56:12.762Z,21.4
2017-03-12T00:56:53.246Z,21.45
2017-03-12T00:57:33.888Z,21.51
2017-03-12T00:58:14.393Z,21.49
2017-03-12T00:58:54.887Z,21.4
2017-03-12T00:59:35.379Z,21.43
2017-03-12T01:00:15.880Z,21.48
2017-03-12T01:00:56.379Z,21.41
2017-03-12T01:01:36.858Z,21.38
2017-03-12T01:02:17.343Z,21.36
2017-03-12T01:02:57.838Z,21.41
2017-03-12T01:03:38.325Z,21.4
2017-03-12T01:04:18.838Z,21.41
2017-03-12T01:04:59.330Z,21.49
2017-03-12T01:05:39.820Z,21.38
2017-03-12T01:06:20.304Z,21.37
2017-03-12T01:07:00.787Z,21.34
2017-03-12T01:07:41.282Z,21.36
2017-03-12T01:08:21.772Z,21.37
2017-03-12T01:09:02.267Z,21.38
2017-03-12T01:09:42.761Z,21.41
2017-03-12T01:10:23.245Z,21.43
2017-03-12T01:11:03.745Z,21.48
2017-03-12T01:11:44.219Z,21.38
2017-03-12T01:12:25.134Z,21.37
2017-03-12T01:13:05.656Z,21.36
2017-03-12T01:13:46.151Z,21.45
2017-03-12T01:14:26.637Z,21.4
2017-03-12T01:15:07.132Z,21.36
2017-03-12T01:15:47.614Z,21.36
2017-03-12T01:16:28.120Z,21.36
2017-03-12T01:17:08.617Z,21.4
2017-03-12T01:17:49.115Z,21.46
2017-03-12T01:18:29.627Z,21.4
2017-03-12T01:19:10.115Z,21.4
2017-03-12T01:19:50.635Z,21.37
2017-03-12T01:20:31.119Z,21.41
2017-03-12T01:21:11.623Z,21.37
2017-03-12T01:21:52.124Z,21.27
2017-03-12T01:22:32.609Z,21.38
2017-03-12T01:23:13.097Z,21.37
2017-03-12T01:23:53.596Z,21.38
2017-03-12T01:24:34.711Z,21.36
2017-03-12T01:25:15.211Z,21.36
2017-03-12T01:25:55.693Z,21.38
2017-03-12T01:26:36.184Z,21.36
2017-03-12T01:27:16.671Z,21.3
2017-03-12T01:27:57.447Z,21.37
2017-03-12T01:28:37.938Z,21.4
2017-03-12T01:29:18.435Z,21.38
2017-03-12T01:29:58.931Z,21.33
2017-03-12T01:30:39.439Z,21.41
2017-03-12T01:31:19.935Z,21.33
2017-03-12T01:32:00.424Z,21.34
2017-03-12T01:32:40.897Z,21.37
2017-03-12T01:33:21.403Z,21.38
2017-03-12T01:34:01.889Z,21.4
2017-03-12T01:34:42.392Z,21.36
2017-03-12T01:35:22.867Z,21.33
2017-03-12T01:36:03.360Z,21.38
2017-03-12T01:36:43.864Z,21.37
2017-03-12T01:37:24.378Z,21.37
2017-03-12T01:38:04.875Z,21.38
2017-03-12T01:38:45.360Z,21.3
2017-03-12T01:39:25.850Z,21.37
2017-03-12T01:40:06.334Z,21.38
2017-03-12T01:40:46.828Z,21.37
2017-03-12T01:41:27.312Z,21.34
2017-03-12T01:42:08.434Z,21.37
2017-03-12T01:42:48.921Z,21.4
2017-03-12T01:43:29.430Z,21.27
2017-03-12T01:44:09.931Z,21.31
2017-03-12T01:44:50.425Z,21.31
2017-03-12T01:45:30.911Z,21.36
2017-03-12T01:46:11.404Z,21.36
2017-03-12T01:46:51.886Z,21.34
2017-03-12T01:47:32.372Z,21.33
2017-03-12T01:48:12.851Z,21.34
2017-03-12T01:48:53.345Z,21.36
2017-03-12T01:49:33.832Z,21.34
2017-03-12T01:50:14.322Z,21.3
2017-03-12T01:50:54.825Z,21.37
2017-03-12T01:51:35.347Z,21.33
2017-03-12T01:52:15.833Z,21.38
2017-03-12T01:52:56.339Z,21.33
2017-03-12T01:53:36.824Z,21.38
2017-03-12T01:54:17.311Z,21.27
2017-03-12T01:54:57.818Z,21.3
2017-03-12T01:55:38.319Z,21.36
2017-03-12T01:56:18.819Z,21.34
2017-03-12T01:56:59.309Z,21.36
2017-03-12T01:57:39.793Z,21.36
2017-03-12T01:58:20.297Z,21.4
2017-03-12T01:59:00.790Z,21.37
2017-03-12T01:59:41.288Z,21.34
2017-03-12T02:00:21.795Z,21.3
2017-03-12T02:01:02.287Z,21.25
2017-03-12T02:01:42.786Z,21.34
2017-03-12T02:02:23.272Z,21.28
2017-03-12T02:03:03.759Z,21.31
2017-03-12T02:03:44.262Z,21.31
2017-03-12T02:04:24.748Z,21.33
2017-03-12T02:05:05.237Z,21.33
2017-03-12T02:05:45.735Z,21.27
2017-03-12T02:06:26.232Z,21.31
2017-03-12T02:07:06.698Z,21.3
2017-03-12T02:07:47.195Z,21.23
2017-03-12T02:08:27.683Z,21.23
2017-03-12T02:09:08.179Z,21.28
2017-03-12T02:09:48.669Z,21.28
2017-03-12T02:10:29.153Z,21.27
2017-03-12T02:11:09.642Z,21.3
2017-03-12T02:11:50.120Z,21.25
2017-03-12T02:12:30.605Z,21.31
2017-03-12T02:13:11.158Z,21.25
2017-03-12T02:13:52.152Z,21.28
2017-03-12T02:14:32.638Z,21.31
2017-03-12T02:15:13.134Z,21.28
2017-03-12T02:15:53.626Z,21.3
2017-03-12T02:16:34.108Z,21.3
2017-03-12T02:17:14.633Z,21.31
2017-03-12T02:17:55.117Z,21.22
2017-03-12T02:18:35.637Z,21.27
2017-03-12T02:19:16.123Z,21.23
2017-03-12T02:19:56.608Z,21.3
2017-03-12T02:20:37.105Z,21.28
2017-03-12T02:21:17.595Z,21.31
2017-03-12T02:21:58.104Z,21.34
2017-03-12T02:22:38.578Z,21.22
2017-03-12T02:23:19.074Z,21.31
2017-03-12T02:23:59.743Z,21.25
2017-03-12T02:24:40.226Z,21.27
2017-03-12T02:25:20.726Z,21.27
2017-03-12T02:26:01.215Z,21.23
2017-03-12T02:26:41.719Z,21.28
2017-03-12T02:27:22.210Z,21.3
2017-03-12T02:28:02.705Z,21.28
2017-03-12T02:28:43.186Z,21.3
2017-03-12T02:29:23.687Z,21.25
2017-03-12T02:30:04.200Z,21.25
2017-03-12T02:30:44.683Z,21.3
2017-03-12T02:31:25.171Z,21.33
2017-03-12T02:32:05.663Z,21.25
2017-03-12T02:32:46.166Z,21.22
2017-03-12T02:33:26.649Z,21.23
2017-03-12T02:34:07.147Z,21.27
2017-03-12T02:34:47.614Z,21.25
2017-03-12T02:35:28.096Z,21.25
2017-03-12T02:36:08.578Z,21.23
2017-03-12T02:36:49.065Z,21.23
2017-03-12T02:37:29.549Z,21.25
2017-03-12T02:38:10.054Z,21.23
2017-03-12T02:38:50.539Z,21.27
2017-03-12T02:39:31.021Z,21.34
2017-03-12T02:40:11.510Z,21.25
2017-03-12T02:40:51.991Z,21.27
2017-03-12T02:41:32.481Z,21.28
2017-03-12T02:42:12.991Z,21.28
2017-03-12T02:42:53.485Z,21.27
2017-03-12T02:43:33.977Z,21.27
2017-03-12T02:44:14.468Z,21.23
2017-03-12T02:44:54.957Z,21.22
2017-03-12T02:45:35.445Z,21.28
2017-03-12T02:46:15.952Z,21.27
2017-03-12T02:46:56.441Z,21.28
2017-03-12T02:47:36.950Z,21.22
2017-03-12T02:48:17.446Z,21.21
2017-03-12T02:48:57.949Z,21.3
2017-03-12T02:49:38.436Z,21.25
2017-03-12T02:50:18.927Z,21.22
2017-03-12T02:50:59.424Z,21.25
2017-03-12T02:51:39.909Z,21.31
2017-03-12T02:52:20.402Z,21.28
2017-03-12T02:53:00.917Z,21.22
2017-03-12T02:53:41.399Z,21.28
2017-03-12T02:54:21.916Z,21.3
2017-03-12T02:55:02.412Z,21.33
2017-03-12T02:55:42.909Z,21.21
2017-03-12T02:56:23.414Z,21.21
2017-03-12T02:57:03.895Z,21.27
2017-03-12T02:57:44.393Z,21.27
2017-03-12T02:58:24.869Z,21.23
2017-03-12T02:59:05.341Z,21.25
2017-03-12T02:59:45.838Z,21.25
2017-03-12T03:00:26.323Z,21.25
2017-03-12T03:01:06.820Z,21.22
2017-03-12T03:01:47.310Z,21.21
2017-03-12T03:02:27.812Z,21.19
2017-03-12T03:03:08.303Z,21.21
2017-03-12T03:03:48.812Z,21.21
2017-03-12T03:04:29.305Z,21.21
2017-03-12T03:05:09.800Z,21.23
2017-03-12T03:05:50.307Z,21.22
2017-03-12T03:06:30.797Z,21.23
2017-03-12T03:07:11.296Z,21.25
2017-03-12T03:07:51.782Z,21.21
2017-03-12T03:08:32.273Z,21.22
2017-03-12T03:09:12.764Z,21.22
2017-03-12T03:09:53.596Z,21.23
2017-03-12T03:10:34.101Z,21.25
2017-03-12T03:11:14.610Z,21.22
2017-03-12T03:11:55.103Z,21.27
2017-03-12T03:12:35.598Z,21.19
2017-03-12T03:13:16.106Z,21.21
2017-03-12T03:13:56.609Z,21.21
2017-03-12T03:14:37.099Z,21.25
2017-03-12T03:15:17.583Z,21.21
2017-03-12T03:15:58.077Z,21.16
2017-03-12T03:16:38.572Z,21.22
2017-03-12T03:17:19.050Z,21.21
2017-03-12T03:17:59.549Z,21.19
2017-03-12T03:18:40.049Z,21.23
2017-03-12T03:19:20.546Z,21.23
2017-03-12T03:20:01.023Z,21.19
2017-03-12T03:20:41.514Z,21.22
2017-03-12T03:21:21.998Z,21.18
2017-03-12T03:22:02.492Z,21.16
2017-03-12T03:22:42.999Z,21.13
2017-03-12T03:23:23.495Z,21.15
2017-03-12T03:24:03.981Z,21.16
2017-03-12T03:24:44.494Z,21.18
2017-03-12T03:25:25.219Z,21.16
2017-03-12T03:26:05.698Z,21.15
2017-03-12T03:26:46.181Z,21.18
2017-03-12T03:27:26.672Z,21.19
2017-03-12T03:29:39.499Z,21.19
2017-03-12T03:30:20.346Z,21.12
2017-03-12T03:31:00.821Z,21.12
2017-03-12T03:31:41.318Z,21.21
2017-03-12T03:32:21.801Z,21.22
2017-03-12T03:33:02.302Z,21.23
2017-03-12T03:33:42.792Z,21.18
2017-03-12T03:34:23.285Z,21.27
2017-03-12T03:35:03.784Z,21.23
2017-03-12T03:35:44.262Z,21.18
2017-03-12T03:36:24.760Z,21.23
2017-03-12T03:37:05.262Z,21.21
2017-03-12T03:37:45.748Z,21.21
2017-03-12T03:38:26.238Z,21.25
2017-03-12T03:39:06.696Z,21.18
2017-03-12T03:39:47.212Z,21.22
2017-03-12T03:40:27.706Z,21.18
2017-03-12T03:41:08.193Z,21.19
2017-03-12T03:41:48.681Z,21.19
2017-03-12T03:42:30.076Z,21.18
2017-03-12T03:43:10.564Z,21.25
2017-03-12T03:43:51.049Z,21.18
2017-03-12T03:44:31.525Z,21.22
2017-03-12T03:45:12.023Z,21.13
2017-03-12T03:45:52.530Z,21.19
2017-03-12T03:46:33.022Z,21.16
2017-03-12T03:47:13.509Z,21.13
2017-03-12T03:47:53.992Z,21.19
2017-03-12T03:48:34.491Z,21.23
2017-03-12T03:49:14.978Z,21.15
2017-03-12T03:49:55.472Z,21.21
2017-03-12T03:50:35.948Z,21.13
2017-03-12T03:51:16.428Z,21.21
2017-03-12T03:51:56.939Z,21.18
2017-03-12T03:52:37.413Z,21.15
2017-03-12T03:53:17.905Z,21.06
2017-03-12T03:53:58.421Z,21.15
2017-03-12T03:54:38.915Z,21.09
2017-03-12T03:55:19.410Z,21.15
2017-03-12T03:55:59.912Z,21.19
2017-03-12T03:56:40.399Z,21.16
2017-03-12T03:57:20.929Z,21.11
2017-03-12T03:58:01.442Z,21.18
2017-03-12T03:58:41.933Z,21.16
2017-03-12T03:59:22.418Z,21.19
2017-03-12T04:00:02.923Z,21.25
2017-03-12T04:00:43.632Z,21.18
2017-03-12T04:01:24.130Z,21.13
2017-03-12T04:02:04.614Z,21.13
2017-03-12T04:02:45.102Z,21.13
2017-03-12T04:03:25.610Z,21.16
2017-03-12T04:04:06.093Z,21.16
2017-03-12T04:04:46.578Z,21.18
2017-03-12T04:05:27.047Z,21.12
2017-03-12T04:06:07.550Z,21.19
2017-03-12T04:06:48.047Z,21.11
2017-03-12T04:07:28.544Z,21.13
2017-03-12T04:08:09.027Z,21.19
2017-03-12T04:08:49.496Z,21.09
2017-03-12T04:09:30.004Z,21.12
2017-03-12T04:10:10.509Z,21.09
2017-03-12T04:10:50.996Z,21.13
2017-03-12T04:11:31.484Z,21.11
2017-03-12T04:12:11.992Z,21.09
2017-03-12T04:12:52.489Z,21.08
2017-03-12T04:13:33.013Z,21.13
2017-03-12T04:14:13.496Z,21.23
2017-03-12T04:14:53.994Z,21.19
2017-03-12T04:15:34.491Z,21.23
2017-03-12T04:16:14.985Z,21.18
2017-03-12T04:16:55.492Z,21.09
2017-03-12T04:17:35.995Z,21.16
2017-03-12T04:18:16.487Z,21.21
2017-03-12T04:18:56.975Z,21.21
2017-03-12T04:19:37.472Z,21.19
2017-03-12T04:20:17.950Z,21.11
2017-03-12T04:20:58.438Z,21.06
2017-03-12T04:21:38.924Z,21.22
2017-03-12T04:22:19.413Z,21.18
2017-03-12T04:22:59.911Z,21.08
2017-03-12T04:23:40.390Z,21.12
2017-03-12T04:24:20.907Z,21.13
2017-03-12T04:25:01.383Z,21.21
2017-03-12T04:25:41.865Z,21.21
2017-03-12T04:26:22.353Z,21.18
2017-03-12T04:27:02.846Z,21.21
2017-03-12T04:27:43.327Z,21.13
2017-03-12T04:28:23.831Z,21.15
2017-03-12T04:29:04.318Z,21.11
2017-03-12T04:29:44.829Z,21.13
2017-03-12T04:30:25.329Z,21.21
2017-03-12T04:31:05.818Z,21.18
2017-03-12T04:31:46.325Z,21.19
2017-03-12T04:32:26.824Z,21.08
2017-03-12T04:33:07.317Z,21.06
2017-03-12T04:33:47.816Z,21.21
2017-03-12T04:34:28.321Z,21.09
2017-03-12T04:35:08.811Z,21.09
2017-03-12T04:35:49.322Z,21.12
2017-03-12T04:36:29.809Z,21.08
2017-03-12T04:37:10.305Z,21.12
2017-03-12T04:37:50.793Z,21.18
2017-03-12T04:38:31.283Z,21.09
2017-03-12T04:39:11.790Z,21.09
2017-03-12T04:39:52.266Z,21.12
2017-03-12T04:40:32.752Z,21.16
2017-03-12T04:41:13.238Z,21.12
2017-03-12T04:41:53.726Z,21.11
2017-03-12T04:42:34.239Z,21.09
2017-03-12T04:43:14.719Z,21.12
2017-03-12T04:43:55.199Z,21.09
2017-03-12T04:44:35.685Z,21.15
2017-03-12T04:45:16.168Z,21.11
2017-03-12T04:45:56.663Z,21.11
2017-03-12T04:46:37.144Z,21.16
2017-03-12T04:47:17.613Z,21.13
2017-03-12T04:47:58.107Z,21.21
2017-03-12T04:48:38.591Z,21.21
2017-03-12T04:49:19.103Z,21.22
2017-03-12T04:49:59.596Z,21.16
2017-03-12T04:50:40.107Z,21.19
2017-03-12T04:51:20.603Z,21.19
2017-03-12T04:52:01.087Z,21.23
2017-03-12T04:52:41.604Z,21.15
2017-03-12T04:53:22.105Z,21.11
2017-03-12T04:54:02.598Z,21.09
2017-03-12T04:54:43.090Z,21.11
2017-03-12T04:55:23.573Z,21.12
2017-03-12T04:56:04.050Z,21.19
2017-03-12T04:56:44.588Z,21.18
2017-03-12T04:57:25.102Z,21.06
2017-03-12T04:58:05.593Z,21.23
2017-03-12T04:58:46.084Z,21.22
2017-03-12T04:59:26.565Z,21.19
2017-03-12T05:00:07.036Z,21.19
2017-03-12T05:00:47.541Z,21.18
2017-03-12T05:01:28.027Z,21.19
2017-03-12T05:02:08.527Z,21.06
2017-03-12T05:02:49.014Z,21.09
2017-03-12T05:03:29.501Z,21.11
2017-03-12T05:04:10.026Z,21.11
2017-03-12T05:04:50.496Z,21.18
2017-03-12T05:05:30.987Z,21.15
2017-03-12T05:06:11.483Z,21.06
2017-03-12T05:06:51.955Z,21.06
2017-03-12T05:07:32.452Z,21.16
2017-03-12T05:08:12.922Z,21.21
2017-03-12T05:08:53.427Z,21.06
2017-03-12T05:09:33.934Z,21.04
2017-03-12T05:10:14.425Z,21.16
2017-03-12T05:10:54.933Z,21.09
2017-03-12T05:11:35.420Z,21.19
2017-03-12T05:12:15.932Z,21.11
2017-03-12T05:12:56.424Z,21.16
2017-03-12T05:13:36.920Z,21.09
2017-03-12T05:14:17.424Z,21.11
2017-03-12T05:14:57.919Z,21.15
2017-03-12T05:15:38.410Z,21.04
2017-03-12T05:16:18.897Z,21.18
2017-03-12T05:16:59.397Z,21.09
2017-03-12T05:17:39.892Z,21.09
2017-03-12T05:18:20.375Z,21.12
2017-03-12T05:19:00.855Z,21.04
2017-03-12T05:19:41.370Z,21.11
2017-03-12T05:20:21.861Z,21.08
2017-03-12T05:21:02.350Z,21.19
2017-03-12T05:21:42.841Z,21.16
2017-03-12T05:22:23.336Z,21.11
2017-03-12T05:23:03.808Z,21.09
2017-03-12T05:23:44.302Z,21.13
2017-03-12T05:24:24.792Z,21.16
2017-03-12T05:25:05.301Z,21.21
2017-03-12T05:25:45.789Z,21.06
2017-03-12T05:26:26.273Z,21.16
2017-03-12T05:27:06.758Z,21.09
2017-03-12T05:27:47.260Z,21.16
2017-03-12T05:28:27.755Z,21.15
2017-03-12T05:29:09.019Z,21.22
2017-03-12T05:29:49.513Z,21.16
2017-03-12T05:30:29.994Z,21.15
2017-03-12T05:31:10.503Z,21.11
2017-03-12T05:31:50.996Z,21.13
2017-03-12T05:32:31.496Z,21.12
2017-03-12T05:33:11.973Z,21.06
2017-03-12T05:33:52.457Z,21.16
2017-03-12T05:34:32.945Z,21.19
2017-03-12T05:35:14.119Z,21.15
2017-03-12T05:35:54.608Z,21.21
2017-03-12T05:36:35.105Z,21.13
2017-03-12T05:37:15.588Z,21.18
2017-03-12T05:37:56.069Z,21.08
2017-03-12T05:38:36.557Z,21.16
2017-03-12T05:39:17.045Z,21.04
2017-03-12T05:39:57.551Z,21.08
2017-03-12T05:40:38.046Z,21.09
2017-03-12T05:41:18.530Z,21.22
2017-03-12T05:41:59.016Z,21.18
2017-03-12T05:42:39.795Z,21.12
2017-03-12T05:43:20.284Z,21.19
2017-03-12T05:44:00.772Z,21.03
2017-03-12T05:44:41.278Z,21.11
2017-03-12T05:45:21.772Z,21.19
2017-03-12T05:46:02.269Z,21.19
2017-03-12T05:46:42.775Z,21.19
2017-03-12T05:47:23.272Z,21.18
2017-03-12T05:48:03.781Z,21.08
2017-03-12T05:48:44.280Z,21.11
2017-03-12T05:49:24.765Z,21.12
2017-03-12T05:50:05.248Z,21.12
2017-03-12T05:50:45.743Z,21.21
2017-03-12T05:51:26.228Z,21.21
2017-03-12T05:52:06.716Z,21.12
2017-03-12T05:52:47.198Z,21.19
2017-03-12T05:53:27.682Z,21.16
2017-03-12T05:54:08.194Z,21.19
2017-03-12T05:54:48.663Z,21.12
2017-03-12T05:55:29.167Z,21.16
2017-03-12T05:56:09.655Z,21.18
2017-03-12T05:56:50.139Z,21.12
2017-03-12T05:57:30.636Z,21.13
2017-03-12T05:58:11.568Z,21.08
2017-03-12T05:58:52.075Z,21.11
2017-03-12T05:59:32.578Z,21.12
2017-03-12T06:00:13.068Z,21.15
2017-03-12T06:00:53.566Z,21.22
2017-03-12T06:01:34.074Z,21.16
2017-03-12T06:02:14.575Z,21.11
2017-03-12T06:02:55.054Z,21.19
2017-03-12T06:03:35.544Z,21.21
2017-03-12T06:04:16.039Z,21.23
2017-03-12T06:04:56.525Z,21.18
2017-03-12T06:05:37.002Z,21.22
2017-03-12T06:06:17.491Z,21.11
2017-03-12T06:06:57.976Z,21.15
2017-03-12T06:07:38.489Z,21.13
2017-03-12T06:08:18.970Z,21.12
2017-03-12T06:08:59.467Z,21.08
2017-03-12T06:09:39.960Z,21.15
2017-03-12T06:10:20.451Z,21.16
2017-03-12T06:11:00.957Z,21.12
2017-03-12T06:11:41.419Z,21.15
2017-03-12T06:12:21.914Z,21.12
2017-03-12T06:13:02.391Z,21.11
2017-03-12T06:13:42.881Z,21.09
2017-03-12T06:14:23.382Z,21.12
2017-03-12T06:15:03.859Z,21.11
2017-03-12T06:15:44.347Z,21.15
2017-03-12T06:16:24.829Z,21.12
2017-03-12T06:17:05.314Z,21.08
2017-03-12T06:17:45.800Z,21.13
2017-03-12T06:18:26.304Z,21.22
2017-03-12T06:19:06.801Z,21.12
2017-03-12T06:19:47.313Z,21.19
2017-03-12T06:20:27.827Z,21.13
2017-03-12T06:21:08.300Z,21.12
2017-03-12T06:21:48.795Z,21.19
2017-03-12T06:22:29.296Z,21.19
2017-03-12T06:23:09.786Z,21.18
2017-03-12T06:23:50.312Z,21.16
2017-03-12T06:24:30.802Z,21.18
2017-03-12T06:25:11.295Z,21.22
2017-03-12T06:25:51.780Z,21.23
2017-03-12T06:26:32.290Z,21.15
2017-03-12T06:27:12.796Z,21.16
2017-03-12T06:27:53.292Z,21.22
2017-03-12T06:28:34.543Z,21.16
2017-03-12T06:29:15.055Z,21.12
2017-03-12T06:29:55.563Z,21.09
2017-03-12T06:30:36.057Z,21.09
2017-03-12T06:31:16.565Z,21.22
2017-03-12T06:31:57.032Z,21.19
2017-03-12T06:32:37.529Z,21.18
2017-03-12T06:33:18.009Z,21.16
2017-03-12T06:33:58.505Z,21.21
2017-03-12T06:34:39.006Z,21.19
2017-03-12T06:35:19.490Z,21.23
2017-03-12T06:35:59.988Z,21.18
2017-03-12T06:36:40.474Z,21.21
2017-03-12T06:37:20.974Z,21.16
2017-03-12T06:38:01.452Z,21.18
2017-03-12T06:38:41.981Z,21.22
2017-03-12T06:39:22.440Z,21.15
2017-03-12T06:40:02.944Z,21.15
2017-03-12T06:40:43.420Z,21.15
2017-03-12T06:41:23.907Z,21.16
2017-03-12T06:42:04.423Z,21.15
2017-03-12T06:42:44.907Z,21.21
2017-03-12T06:43:25.908Z,21.15
2017-03-12T06:44:06.414Z,21.15
2017-03-12T06:44:46.909Z,21.11
2017-03-12T06:45:27.389Z,21.23
2017-03-12T06:46:07.888Z,21.16
2017-03-12T06:46:48.408Z,21.18
2017-03-12T06:47:28.894Z,21.16
2017-03-12T06:48:09.378Z,21.22
2017-03-12T06:48:49.869Z,21.22
2017-03-12T06:49:30.374Z,21.18
2017-03-12T06:50:10.866Z,21.23
2017-03-12T06:50:51.350Z,21.25
2017-03-12T06:51:31.846Z,21.22
2017-03-12T06:52:12.395Z,21.22
2017-03-12T06:52:52.888Z,21.21
2017-03-12T06:53:33.371Z,21.25
2017-03-12T06:54:14.231Z,21.22
2017-03-12T06:54:54.728Z,21.25
2017-03-12T06:55:35.223Z,21.23
2017-03-12T06:56:15.769Z,21.21
2017-03-12T06:56:56.263Z,21.22
2017-03-12T06:57:36.750Z,21.21
2017-03-12T06:58:17.274Z,21.21
2017-03-12T06:58:57.766Z,21.25
2017-03-12T06:59:38.241Z,21.28
2017-03-12T07:00:18.738Z,21.25
2017-03-12T07:00:59.222Z,21.25
2017-03-12T07:01:39.719Z,21.22
2017-03-12T07:02:20.218Z,21.22
2017-03-12T07:03:00.699Z,21.22
2017-03-12T07:03:41.191Z,21.22
2017-03-12T07:04:21.697Z,21.25
2017-03-12T07:05:02.184Z,21.25
2017-03-12T07:05:42.669Z,21.27
2017-03-12T07:06:23.154Z,21.23
2017-03-12T07:07:03.647Z,21.31
2017-03-12T07:07:44.637Z,21.25
2017-03-12T07:08:25.125Z,21.28
2017-03-12T07:09:05.623Z,21.19
2017-03-12T07:09:46.100Z,21.25
2017-03-12T07:10:26.589Z,21.23
2017-03-12T07:11:07.090Z,21.28
2017-03-12T07:11:47.596Z,21.25
2017-03-12T07:12:28.083Z,21.21
2017-03-12T07:13:08.571Z,21.22
2017-03-12T07:13:49.049Z,21.25
2017-03-12T07:14:29.543Z,21.3
2017-03-12T07:15:10.042Z,21.25
2017-03-12T07:15:50.541Z,21.23
2017-03-12T07:16:31.041Z,21.23
2017-03-12T07:17:11.543Z,21.27
2017-03-12T07:17:52.025Z,21.21
2017-03-12T07:18:32.540Z,21.31
2017-03-12T07:19:13.030Z,21.31
2017-03-12T07:19:53.537Z,21.27
2017-03-12T07:20:34.023Z,21.22
2017-03-12T07:21:14.527Z,21.21
2017-03-12T07:21:55.030Z,21.28
2017-03-12T07:22:35.576Z,21.3
2017-03-12T07:23:16.085Z,21.31
2017-03-12T07:23:56.585Z,21.25
2017-03-12T07:24:37.520Z,21.22
2017-03-12T07:25:18.635Z,21.25
2017-03-12T07:25:59.151Z,21.31
2017-03-12T07:26:39.632Z,21.3
2017-03-12T07:27:20.125Z,21.33
2017-03-12T07:28:00.662Z,21.28
2017-03-12T07:28:41.147Z,21.27
2017-03-12T07:29:21.633Z,21.21
2017-03-12T07:30:02.109Z,21.28
2017-03-12T07:30:42.603Z,21.31
2017-03-12T07:31:23.097Z,21.3
2017-03-12T07:32:03.598Z,21.3
2017-03-12T07:32:44.096Z,21.28
2017-03-12T07:33:24.598Z,21.27
2017-03-12T07:34:05.103Z,21.25
2017-03-12T07:34:45.597Z,21.25
2017-03-12T07:35:26.089Z,21.21
2017-03-12T07:36:06.572Z,21.3
2017-03-12T07:36:47.066Z,21.33
2017-03-12T07:37:27.549Z,21.25
2017-03-12T07:38:08.021Z,21.33
2017-03-12T07:38:48.516Z,21.28
2017-03-12T07:39:29.357Z,21.28
2017-03-12T07:40:09.859Z,21.25
2017-03-12T07:40:50.340Z,21.3
2017-03-12T07:41:30.827Z,21.28
2017-03-12T07:42:11.407Z,21.33
2017-03-12T07:42:51.889Z,21.36
2017-03-12T07:43:32.389Z,21.33
2017-03-12T07:44:12.888Z,21.33
2017-03-12T07:44:53.369Z,21.37
2017-03-12T07:45:33.849Z,21.37
2017-03-12T07:46:14.335Z,21.33
2017-03-12T07:46:54.841Z,21.38
2017-03-12T07:47:35.338Z,21.41
2017-03-12T07:48:15.842Z,21.31
2017-03-12T07:48:56.343Z,21.36
2017-03-12T07:49:36.817Z,21.34
2017-03-12T07:50:17.302Z,21.41
2017-03-12T07:50:58.763Z,21.37
2017-03-12T07:51:39.235Z,21.38
2017-03-12T07:52:19.733Z,21.41
2017-03-12T07:53:00.210Z,21.41
2017-03-12T07:53:40.696Z,21.34
2017-03-12T07:54:21.178Z,21.3
2017-03-12T07:55:01.860Z,21.28
2017-03-12T07:55:42.355Z,21.36
2017-03-12T07:56:22.857Z,21.33
2017-03-12T07:57:03.345Z,21.4
2017-03-12T07:57:43.832Z,21.48
2017-03-12T07:58:24.332Z,21.36
2017-03-12T07:59:04.834Z,21.38
2017-03-12T07:59:45.315Z,21.52
2017-03-12T08:00:25.836Z,21.45
2017-03-12T08:01:06.316Z,21.46
2017-03-12T08:01:46.828Z,21.48
2017-03-12T08:02:27.319Z,21.43
2017-03-12T08:03:07.811Z,21.45
2017-03-12T08:03:48.296Z,21.56
2017-03-12T08:04:28.805Z,21.49
2017-03-12T08:05:09.299Z,21.48
2017-03-12T08:05:49.786Z,21.52
2017-03-12T08:06:30.333Z,21.49
2017-03-12T08:07:10.826Z,21.53
2017-03-12T08:07:51.316Z,21.52
2017-03-12T08:08:31.823Z,21.49
2017-03-12T08:09:12.299Z,21.61
2017-03-12T08:09:52.802Z,21.55
2017-03-12T08:10:33.284Z,21.58
2017-03-12T08:11:13.799Z,21.55
2017-03-12T08:11:54.274Z,21.61
2017-03-12T08:12:34.754Z,21.61
2017-03-12T08:13:15.244Z,21.66
2017-03-12T08:13:55.741Z,21.71
2017-03-12T08:14:36.226Z,21.64
2017-03-12T08:15:16.713Z,21.59
2017-03-12T08:15:57.199Z,21.71
2017-03-12T08:16:37.704Z,21.64
2017-03-12T08:17:18.191Z,21.71
2017-03-12T08:17:58.670Z,21.71
2017-03-12T08:18:39.773Z,21.68
2017-03-12T08:19:20.256Z,21.71
2017-03-12T08:20:00.737Z,21.68
2017-03-12T08:20:41.237Z,21.71
2017-03-12T08:21:21.736Z,21.82
2017-03-12T08:22:02.258Z,21.71
2017-03-12T08:22:42.748Z,21.78
2017-03-12T08:23:23.247Z,21.78
2017-03-12T08:24:03.743Z,21.86
2017-03-12T08:24:44.235Z,21.89
2017-03-12T08:25:24.748Z,21.89
2017-03-12T08:26:05.229Z,21.94
2017-03-12T08:26:45.744Z,21.85
2017-03-12T08:27:26.242Z,21.93
2017-03-12T08:28:06.727Z,21.93
2017-03-12T08:28:47.215Z,21.9
2017-03-12T08:29:27.710Z,21.94
2017-03-12T08:30:08.205Z,21.99
2017-03-12T08:30:49.178Z,21.93
2017-03-12T08:31:29.686Z,21.85
2017-03-12T08:32:10.172Z,22.05
2017-03-12T08:32:50.658Z,21.99
2017-03-12T08:33:31.163Z,21.94
2017-03-12T08:34:11.649Z,22.05
2017-03-12T08:34:52.137Z,22.05
2017-03-12T08:35:32.639Z,22.11
2017-03-12T08:36:13.159Z,22.04
2017-03-12T08:36:53.642Z,22
2017-03-12T08:37:34.156Z,22.07
2017-03-12T08:38:14.629Z,22.05
2017-03-12T08:38:55.134Z,22.05
2017-03-12T08:39:35.628Z,22.12
2017-03-12T08:40:16.141Z,22.16
2017-03-12T08:40:56.637Z,22.12
2017-03-12T08:41:37.123Z,22.09
2017-03-12T08:42:17.608Z,22.11
2017-03-12T08:42:58.103Z,22.2
2017-03-12T08:43:38.602Z,22.23